sensor_id;sensor_type;location;lat;lon;timestamp;temperature;humidity
14182;DHT22;7171;50.936;6.764;2023-01-24T00:01:41;4.50;99.90
14182;DHT22;7171;50.936;6.764;2023-01-24T00:04:07;4.50;99.90
14182;DHT22;7171;50.936;6.764;2023-01-24T00:06:34;4.50;99.90
14182;DHT22;7171;50.936;6.764;2023-01-24T00:09:01;4.50;99.90
14182;DHT22;7171;50.936;6.764;2023-01-24T00:11:27;4.50;99.90
14182;DHT22;7171;50.936;6.764;2023-01-24T00:13:54;4.50;99.90
14182;DHT22;7171;50.936;6.764;2023-01-24T00:16:23;4.50;99.90
14182;DHT22;7171;50.936;6.764;2023-01-24T00:18:50;4.50;99.90
14182;DHT22;7171;50.936;6.764;2023-01-24T00:21:18;4.50;99.90
14182;DHT22;7171;50.936;6.764;2023-01-24T00:23:47;4.50;99.90
14182;DHT22;7171;50.936;6.764;2023-01-24T00:26:15;4.50;99.90
14182;DHT22;7171;50.936;6.764;2023-01-24T00:28:42;4.50;99.90
14182;DHT22;7171;50.936;6.764;2023-01-24T00:31:09;4.50;99.90
14182;DHT22;7171;50.936;6.764;2023-01-24T00:33:37;4.50;99.90
14182;DHT22;7171;50.936;6.764;2023-01-24T00:36:05;4.50;99.90
14182;DHT22;7171;50.936;6.764;2023-01-24T00:38:32;4.50;99.90
14182;DHT22;7171;50.936;6.764;2023-01-24T00:40:59;4.50;99.90
14182;DHT22;7171;50.936;6.764;2023-01-24T00:43:26;4.50;99.90
14182;DHT22;7171;50.936;6.764;2023-01-24T00:45:53;4.50;99.90
14182;DHT22;7171;50.936;6.764;2023-01-24T00:48:20;4.50;99.90
14182;DHT22;7171;50.936;6.764;2023-01-24T00:50:49;4.50;99.90
14182;DHT22;7171;50.936;6.764;2023-01-24T00:53:16;4.50;99.90
14182;DHT22;7171;50.936;6.764;2023-01-24T00:55:46;4.50;99.90
14182;DHT22;7171;50.936;6.764;2023-01-24T00:58:13;4.50;99.90
14182;DHT22;7171;50.936;6.764;2023-01-24T01:00:40;4.50;99.90
14182;DHT22;7171;50.936;6.764;2023-01-24T01:03:11;4.50;99.90
14182;DHT22;7171;50.936;6.764;2023-01-24T01:05:38;4.50;99.90
14182;DHT22;7171;50.936;6.764;2023-01-24T01:08:06;4.50;99.90
14182;DHT22;7171;50.936;6.764;2023-01-24T01:10:33;4.50;99.90
14182;DHT22;7171;50.936;6.764;2023-01-24T01:13:00;4.50;99.90
14182;DHT22;7171;50.936;6.764;2023-01-24T01:15:27;4.60;99.90
14182;DHT22;7171;50.936;6.764;2023-01-24T01:17:54;4.60;99.90
14182;DHT22;7171;50.936;6.764;2023-01-24T01:20:21;4.50;99.90
14182;DHT22;7171;50.936;6.764;2023-01-24T01:22:47;4.50;99.90
14182;DHT22;7171;50.936;6.764;2023-01-24T01:25:16;4.50;99.90
14182;DHT22;7171;50.936;6.764;2023-01-24T01:27:42;4.50;99.90
14182;DHT22;7171;50.936;6.764;2023-01-24T01:30:10;4.50;99.90
14182;DHT22;7171;50.936;6.764;2023-01-24T01:32:37;4.50;99.90
14182;DHT22;7171;50.936;6.764;2023-01-24T01:35:04;4.50;99.90
14182;DHT22;7171;50.936;6.764;2023-01-24T01:37:31;4.50;99.90
14182;DHT22;7171;50.936;6.764;2023-01-24T01:39:57;4.50;99.90
14182;DHT22;7171;50.936;6.764;2023-01-24T01:42:25;4.50;99.90
14182;DHT22;7171;50.936;6.764;2023-01-24T01:44:53;4.50;99.90
14182;DHT22;7171;50.936;6.764;2023-01-24T01:47:24;4.50;99.90
14182;DHT22;7171;50.936;6.764;2023-01-24T01:49:57;4.50;99.90
14182;DHT22;7171;50.936;6.764;2023-01-24T01:52:28;4.50;99.90
14182;DHT22;7171;50.936;6.764;2023-01-24T01:55:00;4.50;99.90
14182;DHT22;7171;50.936;6.764;2023-01-24T01:57:30;4.50;99.90
14182;DHT22;7171;50.936;6.764;2023-01-24T02:00:00;4.60;99.90
14182;DHT22;7171;50.936;6.764;2023-01-24T02:02:28;4.60;99.90
14182;DHT22;7171;50.936;6.764;2023-01-24T02:04:59;4.60;99.90
14182;DHT22;7171;50.936;6.764;2023-01-24T02:07:31;4.50;99.90
14182;DHT22;7171;50.936;6.764;2023-01-24T02:09:58;4.50;99.90
14182;DHT22;7171;50.936;6.764;2023-01-24T02:12:28;4.50;99.90
14182;DHT22;7171;50.936;6.764;2023-01-24T02:15:04;4.50;99.90
14182;DHT22;7171;50.936;6.764;2023-01-24T02:17:48;4.50;99.90
14182;DHT22;7171;50.936;6.764;2023-01-24T02:20:32;4.50;99.90
14182;DHT22;7171;50.936;6.764;2023-01-24T02:23:16;4.60;99.90
14182;DHT22;7171;50.936;6.764;2023-01-24T02:25:50;4.50;99.90
14182;DHT22;7171;50.936;6.764;2023-01-24T02:28:20;4.60;99.90
14182;DHT22;7171;50.936;6.764;2023-01-24T02:30:47;4.60;99.90
14182;DHT22;7171;50.936;6.764;2023-01-24T02:33:15;4.60;99.90
14182;DHT22;7171;50.936;6.764;2023-01-24T02:35:43;4.60;99.90
14182;DHT22;7171;50.936;6.764;2023-01-24T02:38:15;4.60;99.90
14182;DHT22;7171;50.936;6.764;2023-01-24T02:40:44;4.60;99.90
14182;DHT22;7171;50.936;6.764;2023-01-24T02:43:13;4.60;99.90
14182;DHT22;7171;50.936;6.764;2023-01-24T02:45:41;4.60;99.90
14182;DHT22;7171;50.936;6.764;2023-01-24T02:48:08;4.60;99.90
14182;DHT22;7171;50.936;6.764;2023-01-24T02:50:35;4.60;99.90
14182;DHT22;7171;50.936;6.764;2023-01-24T02:53:15;4.60;99.90
14182;DHT22;7171;50.936;6.764;2023-01-24T02:55:57;4.50;99.90
14182;DHT22;7171;50.936;6.764;2023-01-24T02:58:42;4.50;99.90
14182;DHT22;7171;50.936;6.764;2023-01-24T03:01:11;4.50;99.90
14182;DHT22;7171;50.936;6.764;2023-01-24T03:03:40;4.50;99.90
14182;DHT22;7171;50.936;6.764;2023-01-24T03:06:07;4.40;99.90
14182;DHT22;7171;50.936;6.764;2023-01-24T03:08:34;4.40;99.90
14182;DHT22;7171;50.936;6.764;2023-01-24T03:11:01;4.40;99.90
14182;DHT22;7171;50.936;6.764;2023-01-24T03:13:28;4.40;99.90
14182;DHT22;7171;50.936;6.764;2023-01-24T03:16:14;4.40;99.90
14182;DHT22;7171;50.936;6.764;2023-01-24T03:18:58;4.40;99.90
14182;DHT22;7171;50.936;6.764;2023-01-24T03:21:43;4.40;99.90
14182;DHT22;7171;50.936;6.764;2023-01-24T03:24:27;4.40;99.90
14182;DHT22;7171;50.936;6.764;2023-01-24T03:27:12;4.40;99.90
14182;DHT22;7171;50.936;6.764;2023-01-24T03:29:56;4.40;99.90
14182;DHT22;7171;50.936;6.764;2023-01-24T03:32:42;4.40;99.90
14182;DHT22;7171;50.936;6.764;2023-01-24T03:35:26;4.40;99.90
14182;DHT22;7171;50.936;6.764;2023-01-24T03:37:53;4.40;99.90
14182;DHT22;7171;50.936;6.764;2023-01-24T03:40:37;4.40;99.90
14182;DHT22;7171;50.936;6.764;2023-01-24T03:43:04;4.50;99.90
14182;DHT22;7171;50.936;6.764;2023-01-24T03:45:32;4.50;99.90
14182;DHT22;7171;50.936;6.764;2023-01-24T03:48:03;4.50;99.90
14182;DHT22;7171;50.936;6.764;2023-01-24T03:50:32;4.50;99.90
14182;DHT22;7171;50.936;6.764;2023-01-24T03:53:17;4.50;99.90
14182;DHT22;7171;50.936;6.764;2023-01-24T03:55:45;4.50;99.90
14182;DHT22;7171;50.936;6.764;2023-01-24T03:58:12;4.50;99.90
14182;DHT22;7171;50.936;6.764;2023-01-24T04:00:39;4.50;99.90
14182;DHT22;7171;50.936;6.764;2023-01-24T04:03:07;4.50;99.90
14182;DHT22;7171;50.936;6.764;2023-01-24T04:05:34;4.50;99.90
14182;DHT22;7171;50.936;6.764;2023-01-24T04:08:01;4.50;99.90
14182;DHT22;7171;50.936;6.764;2023-01-24T04:10:28;4.60;99.90
14182;DHT22;7171;50.936;6.764;2023-01-24T04:12:55;4.60;99.90
14182;DHT22;7171;50.936;6.764;2023-01-24T04:15:24;4.60;99.90
14182;DHT22;7171;50.936;6.764;2023-01-24T04:17:52;4.60;99.90
14182;DHT22;7171;50.936;6.764;2023-01-24T04:20:22;4.60;99.90
14182;DHT22;7171;50.936;6.764;2023-01-24T04:22:49;4.60;99.90
14182;DHT22;7171;50.936;6.764;2023-01-24T04:25:16;4.50;99.90
14182;DHT22;7171;50.936;6.764;2023-01-24T04:27:43;4.50;99.90
14182;DHT22;7171;50.936;6.764;2023-01-24T04:30:12;4.50;99.90
14182;DHT22;7171;50.936;6.764;2023-01-24T04:32:39;4.50;99.90
14182;DHT22;7171;50.936;6.764;2023-01-24T04:35:06;4.40;99.90
14182;DHT22;7171;50.936;6.764;2023-01-24T04:37:34;4.40;99.90
14182;DHT22;7171;50.936;6.764;2023-01-24T04:40:01;4.40;99.90
14182;DHT22;7171;50.936;6.764;2023-01-24T04:42:28;4.40;99.90
14182;DHT22;7171;50.936;6.764;2023-01-24T04:44:55;4.40;99.90
14182;DHT22;7171;50.936;6.764;2023-01-24T04:47:21;4.30;99.90
14182;DHT22;7171;50.936;6.764;2023-01-24T04:49:48;4.30;99.90
14182;DHT22;7171;50.936;6.764;2023-01-24T04:52:15;4.30;99.90
14182;DHT22;7171;50.936;6.764;2023-01-24T04:54:43;4.30;99.90
14182;DHT22;7171;50.936;6.764;2023-01-24T04:57:11;4.30;99.90
14182;DHT22;7171;50.936;6.764;2023-01-24T04:59:38;4.30;99.90
14182;DHT22;7171;50.936;6.764;2023-01-24T05:02:05;4.30;99.90
14182;DHT22;7171;50.936;6.764;2023-01-24T05:04:32;4.30;99.90
14182;DHT22;7171;50.936;6.764;2023-01-24T05:06:58;4.30;99.90
14182;DHT22;7171;50.936;6.764;2023-01-24T05:09:25;4.30;99.90
14182;DHT22;7171;50.936;6.764;2023-01-24T05:11:53;4.30;99.90
14182;DHT22;7171;50.936;6.764;2023-01-24T05:14:20;4.30;99.90
14182;DHT22;7171;50.936;6.764;2023-01-24T05:16:46;4.30;99.90
14182;DHT22;7171;50.936;6.764;2023-01-24T05:19:13;4.30;99.90
14182;DHT22;7171;50.936;6.764;2023-01-24T05:21:40;4.30;99.90
14182;DHT22;7171;50.936;6.764;2023-01-24T05:24:06;4.30;99.90
14182;DHT22;7171;50.936;6.764;2023-01-24T05:26:33;4.30;99.90
14182;DHT22;7171;50.936;6.764;2023-01-24T05:29:01;4.30;99.90
14182;DHT22;7171;50.936;6.764;2023-01-24T05:31:28;4.30;99.90
14182;DHT22;7171;50.936;6.764;2023-01-24T05:33:54;4.30;99.90
14182;DHT22;7171;50.936;6.764;2023-01-24T05:36:22;4.30;99.90
14182;DHT22;7171;50.936;6.764;2023-01-24T05:38:49;4.30;99.90
14182;DHT22;7171;50.936;6.764;2023-01-24T05:41:18;4.30;99.90
14182;DHT22;7171;50.936;6.764;2023-01-24T05:43:46;4.30;99.90
14182;DHT22;7171;50.936;6.764;2023-01-24T05:46:16;4.30;99.90
14182;DHT22;7171;50.936;6.764;2023-01-24T05:48:44;4.30;99.90
14182;DHT22;7171;50.936;6.764;2023-01-24T05:51:13;4.30;99.90
14182;DHT22;7171;50.936;6.764;2023-01-24T05:53:41;4.30;99.90
14182;DHT22;7171;50.936;6.764;2023-01-24T05:56:10;4.30;99.90
14182;DHT22;7171;50.936;6.764;2023-01-24T05:58:39;4.30;99.90
14182;DHT22;7171;50.936;6.764;2023-01-24T06:01:07;4.30;99.90
14182;DHT22;7171;50.936;6.764;2023-01-24T06:03:36;4.30;99.90
14182;DHT22;7171;50.936;6.764;2023-01-24T06:06:04;4.20;99.90
14182;DHT22;7171;50.936;6.764;2023-01-24T06:08:31;4.20;99.90
14182;DHT22;7171;50.936;6.764;2023-01-24T06:11:02;4.20;99.90
14182;DHT22;7171;50.936;6.764;2023-01-24T06:13:28;4.20;99.90
14182;DHT22;7171;50.936;6.764;2023-01-24T06:16:00;4.20;99.90
14182;DHT22;7171;50.936;6.764;2023-01-24T06:18:27;4.20;99.90
14182;DHT22;7171;50.936;6.764;2023-01-24T06:20:56;4.20;99.90
14182;DHT22;7171;50.936;6.764;2023-01-24T06:23:25;4.30;99.90
14182;DHT22;7171;50.936;6.764;2023-01-24T06:25:52;4.30;99.90
14182;DHT22;7171;50.936;6.764;2023-01-24T06:28:19;4.30;99.90
14182;DHT22;7171;50.936;6.764;2023-01-24T06:30:51;4.30;99.90
14182;DHT22;7171;50.936;6.764;2023-01-24T06:33:26;4.30;99.90
14182;DHT22;7171;50.936;6.764;2023-01-24T06:36:25;4.30;99.90
14182;DHT22;7171;50.936;6.764;2023-01-24T06:38:54;4.30;99.90
14182;DHT22;7171;50.936;6.764;2023-01-24T06:41:22;4.30;99.90
14182;DHT22;7171;50.936;6.764;2023-01-24T06:43:49;4.30;99.90
14182;DHT22;7171;50.936;6.764;2023-01-24T06:46:16;4.30;99.90
14182;DHT22;7171;50.936;6.764;2023-01-24T06:48:43;4.30;99.90
14182;DHT22;7171;50.936;6.764;2023-01-24T06:51:12;4.30;99.90
14182;DHT22;7171;50.936;6.764;2023-01-24T06:53:40;4.30;99.90
14182;DHT22;7171;50.936;6.764;2023-01-24T06:56:07;4.30;99.90
14182;DHT22;7171;50.936;6.764;2023-01-24T06:58:35;4.30;99.90
14182;DHT22;7171;50.936;6.764;2023-01-24T07:01:01;4.30;99.90
14182;DHT22;7171;50.936;6.764;2023-01-24T07:03:28;4.20;99.90
14182;DHT22;7171;50.936;6.764;2023-01-24T07:05:55;4.20;99.90
14182;DHT22;7171;50.936;6.764;2023-01-24T07:08:23;4.20;99.90
14182;DHT22;7171;50.936;6.764;2023-01-24T07:10:49;4.20;99.90
14182;DHT22;7171;50.936;6.764;2023-01-24T07:13:16;4.20;99.90
14182;DHT22;7171;50.936;6.764;2023-01-24T07:15:43;4.20;99.90
14182;DHT22;7171;50.936;6.764;2023-01-24T07:18:12;4.20;99.90
14182;DHT22;7171;50.936;6.764;2023-01-24T07:20:39;4.20;99.90
14182;DHT22;7171;50.936;6.764;2023-01-24T07:23:13;4.20;99.90
14182;DHT22;7171;50.936;6.764;2023-01-24T07:25:44;4.30;99.90
14182;DHT22;7171;50.936;6.764;2023-01-24T07:28:11;4.30;99.90
14182;DHT22;7171;50.936;6.764;2023-01-24T07:30:38;4.30;99.90
14182;DHT22;7171;50.936;6.764;2023-01-24T07:33:04;4.30;99.90
14182;DHT22;7171;50.936;6.764;2023-01-24T07:35:31;4.30;99.90
14182;DHT22;7171;50.936;6.764;2023-01-24T07:37:58;4.30;99.90
14182;DHT22;7171;50.936;6.764;2023-01-24T07:40:25;4.30;99.90
14182;DHT22;7171;50.936;6.764;2023-01-24T07:42:53;4.30;99.90
14182;DHT22;7171;50.936;6.764;2023-01-24T07:45:20;4.30;99.90
14182;DHT22;7171;50.936;6.764;2023-01-24T07:47:47;4.30;99.90
14182;DHT22;7171;50.936;6.764;2023-01-24T07:50:14;4.20;99.90
14182;DHT22;7171;50.936;6.764;2023-01-24T07:52:40;4.20;99.90
14182;DHT22;7171;50.936;6.764;2023-01-24T07:55:08;4.20;99.90
14182;DHT22;7171;50.936;6.764;2023-01-24T07:57:35;4.20;99.90
14182;DHT22;7171;50.936;6.764;2023-01-24T08:00:04;4.20;99.90
14182;DHT22;7171;50.936;6.764;2023-01-24T08:02:30;4.20;99.90
14182;DHT22;7171;50.936;6.764;2023-01-24T08:04:57;4.20;99.90
14182;DHT22;7171;50.936;6.764;2023-01-24T08:07:24;4.20;99.90
14182;DHT22;7171;50.936;6.764;2023-01-24T08:09:50;4.20;99.90
14182;DHT22;7171;50.936;6.764;2023-01-24T08:12:17;4.20;99.90
14182;DHT22;7171;50.936;6.764;2023-01-24T08:14:44;4.20;99.90
14182;DHT22;7171;50.936;6.764;2023-01-24T08:17:12;4.20;99.90
14182;DHT22;7171;50.936;6.764;2023-01-24T08:19:38;4.20;99.90
14182;DHT22;7171;50.936;6.764;2023-01-24T08:22:06;4.20;99.90
14182;DHT22;7171;50.936;6.764;2023-01-24T08:24:33;4.20;99.90
14182;DHT22;7171;50.936;6.764;2023-01-24T08:27:00;4.20;99.90
14182;DHT22;7171;50.936;6.764;2023-01-24T08:29:27;4.20;99.90
14182;DHT22;7171;50.936;6.764;2023-01-24T08:31:55;4.20;99.90
14182;DHT22;7171;50.936;6.764;2023-01-24T08:34:23;4.20;99.90
14182;DHT22;7171;50.936;6.764;2023-01-24T08:36:49;4.20;99.90
14182;DHT22;7171;50.936;6.764;2023-01-24T08:39:16;4.20;99.90
14182;DHT22;7171;50.936;6.764;2023-01-24T08:41:43;4.20;99.90
14182;DHT22;7171;50.936;6.764;2023-01-24T08:44:11;4.20;99.90
14182;DHT22;7171;50.936;6.764;2023-01-24T08:46:38;4.20;99.90
14182;DHT22;7171;50.936;6.764;2023-01-24T08:49:05;4.20;99.90
14182;DHT22;7171;50.936;6.764;2023-01-24T08:51:33;4.30;99.90
14182;DHT22;7171;50.936;6.764;2023-01-24T08:54:00;4.30;99.90
14182;DHT22;7171;50.936;6.764;2023-01-24T08:56:27;4.30;99.90
14182;DHT22;7171;50.936;6.764;2023-01-24T08:58:54;4.30;99.90
14182;DHT22;7171;50.936;6.764;2023-01-24T09:01:21;4.30;99.90
14182;DHT22;7171;50.936;6.764;2023-01-24T09:03:47;4.30;99.90
14182;DHT22;7171;50.936;6.764;2023-01-24T09:06:15;4.30;99.90
14182;DHT22;7171;50.936;6.764;2023-01-24T09:08:43;4.30;99.90
14182;DHT22;7171;50.936;6.764;2023-01-24T09:11:09;4.30;99.90
14182;DHT22;7171;50.936;6.764;2023-01-24T09:13:36;4.30;99.90
14182;DHT22;7171;50.936;6.764;2023-01-24T09:16:03;4.30;99.90
14182;DHT22;7171;50.936;6.764;2023-01-24T09:18:30;4.30;99.90
14182;DHT22;7171;50.936;6.764;2023-01-24T09:21:00;4.30;99.90
14182;DHT22;7171;50.936;6.764;2023-01-24T09:23:27;4.30;99.90
14182;DHT22;7171;50.936;6.764;2023-01-24T09:25:55;4.30;99.90
14182;DHT22;7171;50.936;6.764;2023-01-24T09:28:22;4.30;99.90
14182;DHT22;7171;50.936;6.764;2023-01-24T09:30:49;4.30;99.90
14182;DHT22;7171;50.936;6.764;2023-01-24T09:33:16;4.30;99.90
14182;DHT22;7171;50.936;6.764;2023-01-24T09:35:51;4.30;99.90
14182;DHT22;7171;50.936;6.764;2023-01-24T09:38:18;4.30;99.90
14182;DHT22;7171;50.936;6.764;2023-01-24T09:40:50;4.30;99.90
14182;DHT22;7171;50.936;6.764;2023-01-24T09:43:30;4.30;99.90
14182;DHT22;7171;50.936;6.764;2023-01-24T09:46:08;4.40;99.90
14182;DHT22;7171;50.936;6.764;2023-01-24T09:48:40;4.40;99.90
14182;DHT22;7171;50.936;6.764;2023-01-24T09:51:13;4.40;99.90
14182;DHT22;7171;50.936;6.764;2023-01-24T09:53:43;4.40;99.90
14182;DHT22;7171;50.936;6.764;2023-01-24T09:56:20;4.40;99.90
14182;DHT22;7171;50.936;6.764;2023-01-24T09:58:59;4.40;99.90
14182;DHT22;7171;50.936;6.764;2023-01-24T10:01:35;4.40;99.90
14182;DHT22;7171;50.936;6.764;2023-01-24T10:04:04;4.40;99.90
14182;DHT22;7171;50.936;6.764;2023-01-24T10:06:31;4.40;99.90
14182;DHT22;7171;50.936;6.764;2023-01-24T10:09:03;4.40;99.90
14182;DHT22;7171;50.936;6.764;2023-01-24T10:11:39;4.50;99.90
14182;DHT22;7171;50.936;6.764;2023-01-24T10:14:35;4.50;99.90
14182;DHT22;7171;50.936;6.764;2023-01-24T10:17:21;4.50;99.90
14182;DHT22;7171;50.936;6.764;2023-01-24T10:20:05;4.50;99.90
14182;DHT22;7171;50.936;6.764;2023-01-24T10:22:59;4.50;99.90
14182;DHT22;7171;50.936;6.764;2023-01-24T10:25:33;4.60;99.90
14182;DHT22;7171;50.936;6.764;2023-01-24T10:28:03;4.60;99.90
14182;DHT22;7171;50.936;6.764;2023-01-24T10:30:38;4.50;99.90
14182;DHT22;7171;50.936;6.764;2023-01-24T10:33:15;4.60;99.90
14182;DHT22;7171;50.936;6.764;2023-01-24T10:35:54;4.60;99.90
14182;DHT22;7171;50.936;6.764;2023-01-24T10:38:21;4.60;99.90
14182;DHT22;7171;50.936;6.764;2023-01-24T10:40:50;4.60;99.90
14182;DHT22;7171;50.936;6.764;2023-01-24T10:43:17;4.60;99.90
14182;DHT22;7171;50.936;6.764;2023-01-24T10:45:55;4.60;99.90
14182;DHT22;7171;50.936;6.764;2023-01-24T10:48:35;4.60;99.90
14182;DHT22;7171;50.936;6.764;2023-01-24T10:51:11;4.60;99.90
14182;DHT22;7171;50.936;6.764;2023-01-24T10:53:38;4.60;99.90
14182;DHT22;7171;50.936;6.764;2023-01-24T10:56:06;4.60;99.90
14182;DHT22;7171;50.936;6.764;2023-01-24T10:58:35;4.60;99.90
14182;DHT22;7171;50.936;6.764;2023-01-24T11:01:07;4.60;99.90
14182;DHT22;7171;50.936;6.764;2023-01-24T11:03:38;4.70;99.90
14182;DHT22;7171;50.936;6.764;2023-01-24T11:06:23;4.70;99.90
14182;DHT22;7171;50.936;6.764;2023-01-24T11:08:54;4.80;99.90
14182;DHT22;7171;50.936;6.764;2023-01-24T11:11:23;4.80;99.90
14182;DHT22;7171;50.936;6.764;2023-01-24T11:13:54;4.80;99.90
14182;DHT22;7171;50.936;6.764;2023-01-24T11:16:26;4.70;99.90
14182;DHT22;7171;50.936;6.764;2023-01-24T11:18:56;4.70;99.90
14182;DHT22;7171;50.936;6.764;2023-01-24T11:21:24;4.70;99.90
14182;DHT22;7171;50.936;6.764;2023-01-24T11:23:59;4.70;99.90
14182;DHT22;7171;50.936;6.764;2023-01-24T11:26:28;4.70;99.90
14182;DHT22;7171;50.936;6.764;2023-01-24T11:28:56;4.70;99.90
14182;DHT22;7171;50.936;6.764;2023-01-24T11:31:29;4.70;99.90
14182;DHT22;7171;50.936;6.764;2023-01-24T11:34:07;4.70;99.90
14182;DHT22;7171;50.936;6.764;2023-01-24T11:36:45;4.70;99.90
14182;DHT22;7171;50.936;6.764;2023-01-24T11:39:23;4.60;99.90
14182;DHT22;7171;50.936;6.764;2023-01-24T11:41:58;4.60;99.90
14182;DHT22;7171;50.936;6.764;2023-01-24T11:44:46;4.60;99.90
14182;DHT22;7171;50.936;6.764;2023-01-24T11:47:18;4.60;99.90
14182;DHT22;7171;50.936;6.764;2023-01-24T11:49:56;4.60;99.90
14182;DHT22;7171;50.936;6.764;2023-01-24T11:52:50;4.60;99.90
14182;DHT22;7171;50.936;6.764;2023-01-24T11:55:29;4.60;99.90
14182;DHT22;7171;50.936;6.764;2023-01-24T11:58:13;4.60;99.90
14182;DHT22;7171;50.936;6.764;2023-01-24T12:00:47;4.60;99.90
14182;DHT22;7171;50.936;6.764;2023-01-24T12:03:37;4.60;99.90
14182;DHT22;7171;50.936;6.764;2023-01-24T12:06:15;4.60;99.90
14182;DHT22;7171;50.936;6.764;2023-01-24T12:09:00;4.60;99.90
14182;DHT22;7171;50.936;6.764;2023-01-24T12:11:31;4.60;99.90
14182;DHT22;7171;50.936;6.764;2023-01-24T12:16:56;4.70;99.90
14182;DHT22;7171;50.936;6.764;2023-01-24T12:19:56;4.70;99.90
14182;DHT22;7171;50.936;6.764;2023-01-24T12:22:28;4.70;99.90
14182;DHT22;7171;50.936;6.764;2023-01-24T12:25:00;4.70;99.90
14182;DHT22;7171;50.936;6.764;2023-01-24T12:27:31;4.70;99.90
14182;DHT22;7171;50.936;6.764;2023-01-24T12:30:02;4.70;99.90
14182;DHT22;7171;50.936;6.764;2023-01-24T12:32:36;4.70;99.90
14182;DHT22;7171;50.936;6.764;2023-01-24T12:35:14;4.70;99.90
14182;DHT22;7171;50.936;6.764;2023-01-24T12:37:48;4.70;99.90
14182;DHT22;7171;50.936;6.764;2023-01-24T12:40:21;4.70;99.90
14182;DHT22;7171;50.936;6.764;2023-01-24T12:42:55;4.70;99.90
14182;DHT22;7171;50.936;6.764;2023-01-24T12:45:28;4.70;99.90
14182;DHT22;7171;50.936;6.764;2023-01-24T12:48:01;4.70;99.90
14182;DHT22;7171;50.936;6.764;2023-01-24T12:50:39;4.80;99.90
14182;DHT22;7171;50.936;6.764;2023-01-24T12:53:12;4.80;99.90
14182;DHT22;7171;50.936;6.764;2023-01-24T12:55:45;4.80;99.90
14182;DHT22;7171;50.936;6.764;2023-01-24T12:58:17;4.80;99.90
14182;DHT22;7171;50.936;6.764;2023-01-24T13:00:55;4.70;99.90
14182;DHT22;7171;50.936;6.764;2023-01-24T13:03:44;4.70;99.90
14182;DHT22;7171;50.936;6.764;2023-01-24T13:06:22;4.70;99.90
14182;DHT22;7171;50.936;6.764;2023-01-24T13:09:02;4.70;99.90
14182;DHT22;7171;50.936;6.764;2023-01-24T13:11:32;4.80;99.90
14182;DHT22;7171;50.936;6.764;2023-01-24T13:14:11;4.80;99.90
14182;DHT22;7171;50.936;6.764;2023-01-24T13:19:44;4.80;99.90
14182;DHT22;7171;50.936;6.764;2023-01-24T13:22:38;4.80;99.90
14182;DHT22;7171;50.936;6.764;2023-01-24T13:25:36;4.80;99.90
14182;DHT22;7171;50.936;6.764;2023-01-24T13:28:12;4.70;99.90
14182;DHT22;7171;50.936;6.764;2023-01-24T13:30:47;4.70;99.90
14182;DHT22;7171;50.936;6.764;2023-01-24T13:33:18;4.70;99.90
14182;DHT22;7171;50.936;6.764;2023-01-24T13:35:47;4.70;99.90
14182;DHT22;7171;50.936;6.764;2023-01-24T13:38:21;4.70;99.90
14182;DHT22;7171;50.936;6.764;2023-01-24T13:40:59;4.70;99.90
14182;DHT22;7171;50.936;6.764;2023-01-24T13:43:54;4.70;99.90
14182;DHT22;7171;50.936;6.764;2023-01-24T13:46:57;4.70;99.90
14182;DHT22;7171;50.936;6.764;2023-01-24T13:49:37;4.70;99.90
14182;DHT22;7171;50.936;6.764;2023-01-24T13:52:40;4.70;99.90
14182;DHT22;7171;50.936;6.764;2023-01-24T13:58:26;4.60;99.90
14182;DHT22;7171;50.936;6.764;2023-01-24T14:00:54;4.60;99.90
14182;DHT22;7171;50.936;6.764;2023-01-24T14:03:23;4.60;99.90
14182;DHT22;7171;50.936;6.764;2023-01-24T14:05:55;4.60;99.90
14182;DHT22;7171;50.936;6.764;2023-01-24T14:08:56;4.60;99.90
14182;DHT22;7171;50.936;6.764;2023-01-24T14:11:40;4.60;99.90
14182;DHT22;7171;50.936;6.764;2023-01-24T14:14:36;4.60;99.90
14182;DHT22;7171;50.936;6.764;2023-01-24T14:19:47;4.60;99.90
14182;DHT22;7171;50.936;6.764;2023-01-24T14:22:19;4.70;99.90
14182;DHT22;7171;50.936;6.764;2023-01-24T14:24:55;4.70;99.90
14182;DHT22;7171;50.936;6.764;2023-01-24T14:27:25;4.70;99.90
14182;DHT22;7171;50.936;6.764;2023-01-24T14:30:00;4.70;99.90
14182;DHT22;7171;50.936;6.764;2023-01-24T14:32:32;4.80;99.90
14182;DHT22;7171;50.936;6.764;2023-01-24T14:35:14;4.80;99.90
14182;DHT22;7171;50.936;6.764;2023-01-24T14:37:42;4.80;99.90
14182;DHT22;7171;50.936;6.764;2023-01-24T14:40:17;4.80;99.90
14182;DHT22;7171;50.936;6.764;2023-01-24T14:42:44;4.80;99.90
14182;DHT22;7171;50.936;6.764;2023-01-24T14:45:13;4.80;99.90
14182;DHT22;7171;50.936;6.764;2023-01-24T14:47:41;4.80;99.90
14182;DHT22;7171;50.936;6.764;2023-01-24T14:50:21;4.90;99.90
14182;DHT22;7171;50.936;6.764;2023-01-24T14:52:48;4.90;99.90
14182;DHT22;7171;50.936;6.764;2023-01-24T14:55:33;4.90;99.90
14182;DHT22;7171;50.936;6.764;2023-01-24T14:58:14;4.90;99.90
14182;DHT22;7171;50.936;6.764;2023-01-24T15:00:42;4.90;99.90
14182;DHT22;7171;50.936;6.764;2023-01-24T15:03:15;4.90;99.90
14182;DHT22;7171;50.936;6.764;2023-01-24T15:05:53;4.90;99.90
14182;DHT22;7171;50.936;6.764;2023-01-24T15:08:20;4.90;99.90
14182;DHT22;7171;50.936;6.764;2023-01-24T15:10:54;4.90;99.90
14182;DHT22;7171;50.936;6.764;2023-01-24T15:13:26;4.90;99.90
14182;DHT22;7171;50.936;6.764;2023-01-24T15:15:53;4.80;99.90
14182;DHT22;7171;50.936;6.764;2023-01-24T15:18:42;4.80;99.90
14182;DHT22;7171;50.936;6.764;2023-01-24T15:21:24;4.80;99.90
14182;DHT22;7171;50.936;6.764;2023-01-24T15:23:53;4.80;99.90
14182;DHT22;7171;50.936;6.764;2023-01-24T15:26:31;4.80;99.90
14182;DHT22;7171;50.936;6.764;2023-01-24T15:32:21;4.80;99.90
14182;DHT22;7171;50.936;6.764;2023-01-24T15:34:48;4.80;99.90
14182;DHT22;7171;50.936;6.764;2023-01-24T15:37:15;4.80;99.90
14182;DHT22;7171;50.936;6.764;2023-01-24T15:39:42;4.80;99.90
14182;DHT22;7171;50.936;6.764;2023-01-24T15:42:15;4.70;99.90
14182;DHT22;7171;50.936;6.764;2023-01-24T15:45:00;4.70;99.90
14182;DHT22;7171;50.936;6.764;2023-01-24T15:47:27;4.70;99.90
14182;DHT22;7171;50.936;6.764;2023-01-24T15:50:15;4.60;99.90
14182;DHT22;7171;50.936;6.764;2023-01-24T15:53:21;4.60;99.90
14182;DHT22;7171;50.936;6.764;2023-01-24T15:55:48;4.60;99.90
14182;DHT22;7171;50.936;6.764;2023-01-24T15:58:17;4.50;99.90
14182;DHT22;7171;50.936;6.764;2023-01-24T16:00:50;4.50;99.90
14182;DHT22;7171;50.936;6.764;2023-01-24T16:03:17;4.50;99.90
14182;DHT22;7171;50.936;6.764;2023-01-24T16:05:44;4.40;99.90
14182;DHT22;7171;50.936;6.764;2023-01-24T16:08:11;4.40;99.90
14182;DHT22;7171;50.936;6.764;2023-01-24T16:10:38;4.40;99.90
14182;DHT22;7171;50.936;6.764;2023-01-24T16:13:05;4.40;99.90
14182;DHT22;7171;50.936;6.764;2023-01-24T16:15:33;4.40;99.90
14182;DHT22;7171;50.936;6.764;2023-01-24T16:18:00;4.40;99.90
14182;DHT22;7171;50.936;6.764;2023-01-24T16:20:27;4.40;99.90
14182;DHT22;7171;50.936;6.764;2023-01-24T16:22:54;4.30;99.90
14182;DHT22;7171;50.936;6.764;2023-01-24T16:25:21;4.30;99.90
14182;DHT22;7171;50.936;6.764;2023-01-24T16:27:50;4.30;99.90
14182;DHT22;7171;50.936;6.764;2023-01-24T16:30:20;4.30;99.90
14182;DHT22;7171;50.936;6.764;2023-01-24T16:32:48;4.30;99.90
14182;DHT22;7171;50.936;6.764;2023-01-24T16:35:15;4.20;99.90
14182;DHT22;7171;50.936;6.764;2023-01-24T16:37:42;4.20;99.90
14182;DHT22;7171;50.936;6.764;2023-01-24T16:40:10;4.20;99.90
14182;DHT22;7171;50.936;6.764;2023-01-24T16:42:39;4.20;99.90
14182;DHT22;7171;50.936;6.764;2023-01-24T16:45:08;4.20;99.90